Latest Coastal Weather Observations for Legendre Island

IDW60701

Issued at 7:42 am WST Tuesday 1 September 2015 (issued every 10 minutes, with the page automatically refreshed every 10 minutes)

About coastal observations | Map of coastal stations | Coastal observations for WA | Marine services | Other Formats
Station Details ID: 004095 Name: LEGENDRE ISLAND Lat: -20.36 Lon: 116.84 Height: 29.0 m
Data from the previous 72 hours. | See also: Recent months at Legendre Island
Date/Time
WST
Temp

°C
Wind Pressure Rain
since 9am
mm
Weather Cloud Vis
km
Sea
Height
m
Swell
Dir
 
Speed
knots
Gust
knots
hPa Trend Height
m
Period
s
Dir
01/07:30am 20.9 S 10 12 1015.9 - - - - - - - - -
01/07:00am 19.6 S 11 13 1015.5 - - - - - - - - -
01/06:30am 19.0 SSW 12 15 1015.1 - - - - - - - - -
01/06:00am 18.9 SSW 12 14 1014.8 - - - - - - - - -
01/05:30am 19.4 SSW 13 15 1014.5 - - - - - - - - -
01/05:00am 20.1 SSW 16 18 1014.4 - - - - - - - - -
01/04:30am 20.4 SSW 17 20 1014.2 - - - - - - - - -
01/04:00am 20.6 SW 18 22 1014.0 - - - - - - - - -
01/03:30am 20.9 SW 18 21 1014.1 - - - - - - - - -
01/03:00am 21.3 SW 19 22 1014.1 - - - - - - - - -
01/02:30am 21.6 SW 18 22 1014.2 - - - - - - - - -
01/02:00am 21.9 SW 18 21 1014.5 - - - - - - - - -
01/01:30am 22.1 SW 18 23 1014.6 - - - - - - - - -
01/01:00am 22.2 SW 19 23 1015.0 - - - - - - - - -
01/12:30am 22.4 WSW 20 22 1015.3 - - - - - - - - -
01/12:00am 22.3 WSW 18 24 1015.5 - - - - - - - - -
 
Date/Time
WST
Temp

°C
Wind Pressure Rain
since 9am
mm
Weather Cloud Vis
km
Sea
Height
m
Swell
Dir
 
Speed
knots
Gust
knots
hPa Trend Height
m
Period
s
Dir
31/11:30pm 22.2 WSW 17 21 1015.9 - - - - - - - - -
31/11:00pm 22.3 WSW 17 20 1016.1 - - - - - - - - -
31/10:30pm 22.0 WSW 16 20 1015.9 - - - - - - - - -
31/10:00pm 22.3 WSW 17 23 1016.0 - - - - - - - - -
31/09:30pm 22.5 WSW 18 21 1016.1 - - - - - - - - -
31/09:00pm 22.5 WSW 16 19 1016.1 - - - - - - - - -
31/08:30pm 22.6 WSW 17 20 1015.8 - - - - - - - - -
31/08:00pm 22.5 WSW 17 21 1015.6 - - - - - - - - -
31/07:30pm 22.4 WSW 17 20 1015.3 - - - - - - - - -
31/07:00pm 22.6 WSW 18 22 1015.0 - - - - - - - - -
31/06:30pm 22.7 WSW 17 20 1014.8 - - - - - - - - -
31/06:00pm 23.0 WSW 17 21 1014.6 - - - - - - - - -
31/05:30pm 23.7 WSW 17 20 1014.4 - - - - - - - - -
31/05:00pm 24.4 WSW 18 22 1014.2 - - - - - - - - -
31/04:30pm 24.8 WSW 18 21 1014.1 - - - - - - - - -
31/04:00pm 25.6 WSW 16 20 1014.2 - - - - - - - - -
31/03:30pm 26.2 WSW 14 18 1014.4 - - - - - - - - -
31/03:00pm 26.6 W 11 13 1014.6 - - - - - - - - -
31/02:30pm 26.1 W 12 15 1014.8 - - - - - - - - -
31/02:00pm 26.7 W 12 15 1015.0 - - - - - - - - -
31/01:30pm 27.0 WSW 13 14 1015.2 - - - - - - - - -
31/01:00pm 26.4 WSW 12 14 1015.6 - - - - - - - - -
31/12:30pm 27.3 WSW 11 13 1015.9 - - - - - - - - -
31/12:00pm 26.6 WSW 11 13 1016.1 - - - - - - - - -
31/11:30am 26.5 SW 12 13 1016.3 - - - - - - - - -
31/11:00am 26.1 SW 12 15 1016.7 - - - - - - - - -
31/10:30am 25.5 SW 11 14 1017.0 - - - - - - - - -
31/10:00am 24.9 SSW 12 15 1016.9 - - - - - - - - -
31/09:30am 24.1 SSW 13 16 1016.8 - - - - - - - - -
31/09:00am 23.5 SSW 13 16 1016.6 - - - - - - - - -
31/08:30am 22.7 SSW 13 16 1016.5 - - - - - - - - -
31/08:00am 22.1 SSW 14 17 1016.2 - - - - - - - - -
31/07:30am 21.1 SW 15 18 1015.8 - - - - - - - - -
31/07:00am 20.3 SW 16 19 1015.5 - - - - - - - - -
31/06:30am 20.0 SW 15 18 1015.3 - - - - - - - - -
31/06:00am 20.2 SW 16 19 1015.0 - - - - - - - - -
31/05:30am 20.4 SW 17 20 1014.9 - - - - - - - - -
31/05:00am 20.5 SW 19 23 1014.6 - - - - - - - - -
31/04:30am 21.0 SW 19 22 1014.5 - - - - - - - - -
31/04:00am 21.0 SW 19 23 1014.4 - - - - - - - - -
31/03:30am 21.3 SW 19 24 1014.7 - - - - - - - - -
31/03:00am 21.4 SW 19 23 1014.8 - - - - - - - - -
31/02:30am 21.8 SW 20 25 1015.1 - - - - - - - - -
31/02:00am 21.7 SW 19 23 1015.3 - - - - - - - - -
31/01:30am 21.7 SW 20 26 1015.5 - - - - - - - - -
31/01:00am 21.7 SW 23 28 1015.7 - - - - - - - - -
31/12:30am 21.8 SW 20 27 1016.1 - - - - - - - - -
31/12:00am 21.9 SW 21 26 1016.4 - - - - - - - - -
 
Date/Time
WST
Temp

°C
Wind Pressure Rain
since 9am
mm
Weather Cloud Vis
km
Sea
Height
m
Swell
Dir
 
Speed
knots
Gust
knots
hPa Trend Height
m
Period
s
Dir
30/11:30pm 21.9 SW 20 26 1016.4 - - - - - - - - -
30/11:00pm 22.1 SW 18 21 1016.7 - - - - - - - - -
30/10:30pm 22.1 SW 19 25 1016.8 - - - - - - - - -
30/10:00pm 22.0 SW 21 26 1016.7 - - - - - - - - -
30/09:30pm 22.0 SW 21 25 1016.6 - - - - - - - - -
30/09:00pm 22.7 WSW 19 25 1016.6 - - - - - - - - -
30/08:30pm 22.8 WSW 18 22 1016.3 - - - - - - - - -
30/08:00pm 22.6 WSW 15 20 1016.0 - - - - - - - - -
30/07:30pm 22.7 WSW 17 20 1015.7 - - - - - - - - -
30/07:00pm 22.6 WSW 17 22 1015.5 - - - - - - - - -
30/06:30pm 22.7 WSW 16 19 1015.3 - - - - - - - - -
30/06:00pm 23.1 W 16 19 1015.3 - - - - - - - - -
30/05:30pm 23.8 W 17 21 1015.1 - - - - - - - - -
30/05:00pm 24.1 W 16 20 1015.1 - - - - - - - - -
30/04:30pm 24.4 W 19 22 1015.1 - - - - - - - - -
30/04:00pm 24.9 W 16 19 1015.1 - - - - - - - - -
30/03:30pm 25.6 W 17 20 1015.0 - - - - - - - - -
30/03:00pm 25.6 W 14 17 1015.3 - - - - - - - - -
30/02:30pm 25.8 W 14 17 1015.6 - - - - - - - - -
30/02:00pm 26.1 W 14 16 1015.8 - - - - - - - - -
30/01:30pm 25.9 W 14 17 1016.1 - - - - - - - - -
30/01:00pm 25.6 W 13 16 1016.5 - - - - - - - - -
30/12:30pm 25.6 W 12 14 1016.9 - - - - - - - - -
30/12:00pm 25.3 W 11 13 1017.3 - - - - - - - - -
30/11:30am 25.8 WSW 9 11 1017.9 - - - - - - - - -
30/11:00am 24.8 WSW 9 11 1018.4 - - - - - - - - -
30/10:30am 24.9 SW 9 11 1018.6 - - - - - - - - -
30/10:00am 24.2 SW 10 12 1018.7 - - - - - - - - -
30/09:30am 23.8 SW 9 12 1018.6 - - - - - - - - -
30/09:00am 23.3 SSW 10 12 1018.3 - - - - - - - - -
30/08:30am 22.0 SSW 12 14 1018.0 - - - - - - - - -
30/08:00am 21.6 SSW 11 16 1017.8 - - - - - - - - -
30/07:30am 20.7 SSW 12 15 1017.2 - - - - - - - - -
30/07:00am 19.8 SW 13 16 1016.6 - - - - - - - - -
30/06:30am 19.4 SW 14 17 1016.2 - - - - - - - - -
30/06:00am 19.5 SSW 15 17 1015.9 - - - - - - - - -
30/05:30am 19.6 SSW 16 19 1015.5 - - - - - - - - -
30/05:00am 19.7 SSW 18 21 1015.2 - - - - - - - - -
30/04:30am 19.8 SSW 18 22 1015.0 - - - - - - - - -
30/04:00am 20.1 SSW 19 23 1014.9 - - - - - - - - -
30/03:30am 20.2 SW 19 23 1014.9 - - - - - - - - -
30/03:00am 20.5 SW 20 24 1014.8 - - - - - - - - -
30/02:30am 20.7 SW 21 25 1014.9 - - - - - - - - -
30/02:00am 21.1 SW 19 24 1015.1 - - - - - - - - -
30/01:30am 21.3 SW 20 24 1015.4 - - - - - - - - -
30/01:00am 21.4 SW 19 23 1015.7 - - - - - - - - -
30/12:30am 21.4 SW 19 23 1015.9 - - - - - - - - -
30/12:00am 21.4 WSW 18 21 1016.0 - - - - - - - - -
 
Date/Time
WST
Temp

°C
Wind Pressure Rain
since 9am
mm
Weather Cloud Vis
km
Sea
Height
m
Swell
Dir
 
Speed
knots
Gust
knots
hPa Trend Height
m
Period
s
Dir
29/11:30pm 21.4 WSW 17 21 1016.1 - - - - - - - - -
29/11:00pm 21.5 WSW 17 21 1016.3 - - - - - - - - -
29/10:30pm 21.6 WSW 17 20 1016.4 - - - - - - - - -
29/10:00pm 21.5 WSW 17 20 1016.4 - - - - - - - - -
29/09:30pm 21.4 WSW 17 20 1016.5 - - - - - - - - -
29/09:00pm 21.4 WSW 17 21 1016.3 - - - - - - - - -
29/08:30pm 21.5 WSW 18 21 1016.0 - - - - - - - - -
29/08:00pm 21.7 WSW 17 21 1015.7 - - - - - - - - -
29/07:30pm 21.5 W 17 20 1015.4 - - - - - - - - -
29/07:00pm 21.5 W 17 20 1015.1 - - - - - - - - -
29/06:30pm 21.6 W 18 21 1014.8 - - - - - - - - -
29/06:00pm 21.8 W 17 20 1014.4 - - - - - - - - -
29/05:30pm 22.4 W 15 19 1014.3 - - - - - - - - -
29/05:00pm 23.1 W 16 19 1014.2 - - - - - - - - -
29/04:30pm 23.6 W 16 18 1014.1 - - - - - - - - -
29/04:00pm 23.8 W 15 18 1014.1 - - - - - - - - -
29/03:30pm 24.4 W 15 18 1014.3 - - - - - - - - -
29/03:00pm 24.6 W 15 18 1014.4 - - - - - - - - -
29/02:30pm 24.5 W 16 18 1014.6 - - - - - - - - -
29/02:00pm 24.2 W 15 19 1014.9 - - - - - - - - -
29/01:30pm 24.6 W 15 17 1015.3 - - - - - - - - -
29/01:00pm 24.3 W 14 17 1015.9 - - - - - - - - -
29/12:30pm 24.9 WSW 13 15 1016.3 - - - - - - - - -
29/12:00pm 24.4 WSW 10 14 1016.6 - - - - - - - - -
29/11:30am 24.6 WSW 11 13 1017.0 - - - - - - - - -
29/11:00am 24.3 SW 14 16 1017.3 - - - - - - - - -
29/10:30am 24.1 SW 12 14 1017.8 - - - - - - - - -
29/10:00am 23.8 SW 10 13 1018.1 - - - - - - - - -
29/09:30am 23.1 SSW 11 13 1018.0 - - - - - - - - -
29/09:00am 22.6 SW 12 15 1017.9 - - - - - - - - -
29/08:30am 22.4 SSW 11 14 1017.5 - - - - - - - - -
29/08:00am 21.5 SSW 12 15 1017.0 - - - - - - - - -

Other Formats:

Comma delimited format used in spreadsheet applications
http://www.bom.gov.au/fwo/IDW60701/IDW60701.94307.axf

JavaScript Object Notation format (JSON) in row-major order
http://www.bom.gov.au/fwo/IDW60701/IDW60701.94307.json